createdAt,value
2022-07-25T00:01:45.640Z,13.63
2022-07-25T00:04:14.404Z,13.93
2022-07-25T00:06:42.921Z,14.97
2022-07-25T00:09:10.647Z,13.80
2022-07-25T00:11:37.637Z,13.60
2022-07-25T00:14:05.567Z,13.17
2022-07-25T00:16:32.583Z,14.20
2022-07-25T00:18:59.764Z,15.17
2022-07-25T00:21:26.909Z,16.57
2022-07-25T00:23:53.648Z,13.77
2022-07-25T00:26:20.433Z,14.10
2022-07-25T00:28:47.088Z,15.50
2022-07-25T00:31:13.859Z,14.67
2022-07-25T00:33:41.125Z,16.33
2022-07-25T00:36:09.293Z,14.90
2022-07-25T00:38:36.260Z,14.73
2022-07-25T00:41:04.403Z,15.67
2022-07-25T00:43:31.698Z,14.20
2022-07-25T00:45:59.369Z,14.00
2022-07-25T00:48:27.630Z,14.37
2022-07-25T00:50:55.612Z,15.43
2022-07-25T00:53:22.702Z,16.57
2022-07-25T00:55:49.484Z,14.87
2022-07-25T00:58:16.342Z,14.20
2022-07-25T01:00:43.035Z,13.13
2022-07-25T01:03:09.940Z,14.63
2022-07-25T01:05:36.766Z,15.27
2022-07-25T01:08:04.363Z,16.30
2022-07-25T01:10:34.675Z,15.17
2022-07-25T01:13:01.783Z,14.87
2022-07-25T01:15:28.669Z,14.23
2022-07-25T01:17:55.753Z,16.53
2022-07-25T01:20:24.147Z,14.60
2022-07-25T01:22:51.714Z,16.80
2022-07-25T01:25:19.450Z,14.17
2022-07-25T01:27:52.769Z,14.80
2022-07-25T01:30:23.187Z,14.53
2022-07-25T01:32:50.038Z,16.47
2022-07-25T01:35:16.699Z,16.57
2022-07-25T01:37:45.934Z,17.00
2022-07-25T01:40:13.916Z,15.77
2022-07-25T01:42:41.415Z,16.17
2022-07-25T01:45:08.713Z,16.10
2022-07-25T01:47:35.391Z,15.77
2022-07-25T01:50:02.107Z,17.00
2022-07-25T01:52:28.750Z,17.00
2022-07-25T01:54:55.440Z,15.50
2022-07-25T01:57:23.256Z,15.93
2022-07-25T01:59:56.731Z,17.20
2022-07-25T02:02:23.390Z,16.60
2022-07-25T02:04:50.109Z,15.90
2022-07-25T02:07:16.801Z,17.20
2022-07-25T02:09:43.432Z,15.50
2022-07-25T02:12:10.143Z,16.73
2022-07-25T02:14:36.947Z,15.03
2022-07-25T02:17:03.881Z,16.70
2022-07-25T02:19:30.574Z,15.77
2022-07-25T02:21:57.286Z,16.67
2022-07-25T02:24:24.148Z,15.70
2022-07-25T02:26:50.899Z,15.30
2022-07-25T02:29:17.668Z,15.13
2022-07-25T02:31:48.654Z,17.63
2022-07-25T02:34:15.760Z,17.07
2022-07-25T02:36:42.512Z,19.63
2022-07-25T02:39:09.240Z,15.97
2022-07-25T02:41:35.895Z,14.63
2022-07-25T02:44:02.652Z,15.37
2022-07-25T02:46:29.414Z,15.33
2022-07-25T02:48:56.187Z,14.47
2022-07-25T02:51:23.034Z,16.40
2022-07-25T02:53:57.756Z,15.03
2022-07-25T02:56:29.922Z,18.20
2022-07-25T02:58:57.612Z,16.43
2022-07-25T03:01:24.683Z,16.47
2022-07-25T03:03:51.466Z,15.87
2022-07-25T03:06:18.279Z,15.30
2022-07-25T03:08:45.104Z,15.63
2022-07-25T03:11:13.278Z,17.53
2022-07-25T03:13:40.014Z,17.73
2022-07-25T03:16:07.060Z,17.97
2022-07-25T03:18:33.739Z,15.13
2022-07-25T03:21:00.428Z,14.90
2022-07-25T03:23:28.230Z,16.27
2022-07-25T03:25:56.135Z,14.80
2022-07-25T03:28:24.521Z,17.10
2022-07-25T03:30:51.839Z,17.13
2022-07-25T03:33:18.514Z,12.57
2022-07-25T03:35:45.298Z,15.90
2022-07-25T03:38:11.920Z,15.10
2022-07-25T03:40:38.586Z,17.77
2022-07-25T03:43:05.491Z,17.50
2022-07-25T03:45:32.319Z,17.77
2022-07-25T03:47:59.031Z,21.07
2022-07-25T03:50:25.658Z,22.10
2022-07-25T03:52:52.316Z,16.30
2022-07-25T03:55:18.948Z,15.73
2022-07-25T03:57:45.630Z,15.60
2022-07-25T04:00:12.692Z,14.90
2022-07-25T04:02:39.724Z,15.83
2022-07-25T04:05:07.655Z,16.03
2022-07-25T04:07:35.357Z,15.97
2022-07-25T04:10:02.286Z,15.80
2022-07-25T04:12:28.908Z,14.67
2022-07-25T04:14:55.571Z,14.37
2022-07-25T04:17:22.329Z,15.60
2022-07-25T04:19:52.371Z,16.57
2022-07-25T04:22:20.457Z,17.00
2022-07-25T04:24:47.086Z,15.87
2022-07-25T04:27:14.026Z,15.57
2022-07-25T04:29:40.699Z,18.77
2022-07-25T04:32:07.499Z,16.77
2022-07-25T04:34:34.333Z,16.63
2022-07-25T04:37:00.995Z,16.73
2022-07-25T04:39:27.830Z,17.73
2022-07-25T04:41:54.449Z,14.63
2022-07-25T04:44:21.252Z,16.20
2022-07-25T04:46:48.001Z,16.27
2022-07-25T04:49:14.677Z,17.83
2022-07-25T04:51:41.424Z,17.00
2022-07-25T04:54:09.504Z,19.67
2022-07-25T04:56:36.656Z,14.87
2022-07-25T04:59:06.860Z,17.73
2022-07-25T05:01:34.345Z,20.80
2022-07-25T05:04:01.090Z,20.27
2022-07-25T05:06:27.707Z,16.20
2022-07-25T05:08:54.459Z,14.17
2022-07-25T05:11:21.102Z,16.03
2022-07-25T05:13:47.743Z,15.40
2022-07-25T05:16:14.485Z,13.13
2022-07-25T05:18:41.189Z,15.50
2022-07-25T05:21:11.121Z,13.57
2022-07-25T05:23:37.807Z,13.80
2022-07-25T05:26:04.618Z,14.10
2022-07-25T05:28:31.195Z,15.57
2022-07-25T05:30:57.893Z,15.43
2022-07-25T05:33:24.900Z,16.73
2022-07-25T05:35:51.529Z,15.53
2022-07-25T05:38:18.291Z,13.43
2022-07-25T05:40:45.881Z,14.63
2022-07-25T05:43:12.563Z,14.77
2022-07-25T05:45:39.161Z,13.40
2022-07-25T05:48:06.627Z,12.40
2022-07-25T05:50:33.251Z,14.50
2022-07-25T05:52:59.892Z,12.50
2022-07-25T05:55:26.537Z,12.73
2022-07-25T05:57:53.220Z,12.27
2022-07-25T06:00:19.935Z,13.40
2022-07-25T06:02:46.722Z,12.20
2022-07-25T06:05:13.609Z,12.40
2022-07-25T06:07:41.252Z,13.80
2022-07-25T06:10:08.235Z,13.27
2022-07-25T06:12:36.595Z,13.40
2022-07-25T06:15:04.165Z,12.37
2022-07-25T06:17:32.673Z,11.63
2022-07-25T06:19:59.636Z,13.73
2022-07-25T06:22:26.571Z,11.57
2022-07-25T06:24:53.324Z,54.93
2022-07-25T06:27:21.618Z,13.63
2022-07-25T06:29:49.895Z,12.27
2022-07-25T06:32:16.518Z,12.87
2022-07-25T06:34:43.635Z,11.00
2022-07-25T06:37:10.253Z,11.77
2022-07-25T06:39:36.975Z,11.83
2022-07-25T06:42:04.479Z,12.30
2022-07-25T06:44:34.935Z,12.17
2022-07-25T06:47:02.398Z,11.33
2022-07-25T06:49:29.080Z,11.27
2022-07-25T06:51:55.727Z,14.07
2022-07-25T06:54:22.449Z,15.73
2022-07-25T06:56:49.252Z,11.83
2022-07-25T06:59:15.890Z,12.63
2022-07-25T07:01:42.823Z,11.97
2022-07-25T07:04:10.607Z,12.00
2022-07-25T07:06:38.645Z,11.87
2022-07-25T07:09:05.823Z,11.27
2022-07-25T07:11:34.314Z,11.17
2022-07-25T07:14:03.489Z,11.93
2022-07-25T07:16:31.180Z,10.97
2022-07-25T07:18:58.236Z,12.23
2022-07-25T07:21:25.369Z,11.27
2022-07-25T07:23:53.371Z,10.47
2022-07-25T07:26:21.379Z,11.00
2022-07-25T07:28:48.054Z,11.13
2022-07-25T07:31:18.226Z,11.80
2022-07-25T07:33:45.662Z,10.40
2022-07-25T07:36:12.458Z,11.43
2022-07-25T07:38:39.887Z,10.73
2022-07-25T07:41:06.592Z,9.80
2022-07-25T07:43:33.224Z,10.90
2022-07-25T07:46:02.747Z,9.30
2022-07-25T07:48:30.998Z,8.77
2022-07-25T07:50:58.883Z,9.97
2022-07-25T07:53:44.029Z,8.17
2022-07-25T07:56:11.043Z,8.37
2022-07-25T07:58:37.813Z,8.27
2022-07-25T08:01:04.519Z,8.73
2022-07-25T08:03:31.525Z,7.27
2022-07-25T08:05:58.404Z,8.97
2022-07-25T08:08:29.201Z,8.80
2022-07-25T08:10:59.145Z,8.43
2022-07-25T08:13:28.895Z,9.77
2022-07-25T08:15:59.101Z,8.27
2022-07-25T08:18:27.550Z,7.37
2022-07-25T08:20:54.630Z,8.47
2022-07-25T08:23:22.356Z,8.80
2022-07-25T08:25:49.286Z,8.93
2022-07-25T08:28:16.034Z,7.47
2022-07-25T08:30:43.568Z,9.37
2022-07-25T08:33:13.465Z,9.57
2022-07-25T08:35:41.963Z,9.03
2022-07-25T08:38:11.642Z,8.20
2022-07-25T08:40:39.046Z,8.27
2022-07-25T08:43:05.844Z,8.60
2022-07-25T08:45:32.942Z,7.43
2022-07-25T08:47:59.593Z,7.00
2022-07-25T08:50:28.650Z,8.07
2022-07-25T08:53:10.422Z,9.47
2022-07-25T08:55:45.157Z,8.77
2022-07-25T08:58:14.253Z,7.57
2022-07-25T09:00:41.961Z,8.10
2022-07-25T09:03:08.929Z,7.40
2022-07-25T09:05:37.214Z,7.90
2022-07-25T09:08:15.093Z,8.03
2022-07-25T09:10:48.198Z,7.63
2022-07-25T09:13:16.277Z,8.03
2022-07-25T09:15:51.375Z,9.00
2022-07-25T09:18:24.247Z,7.67
2022-07-25T09:20:53.180Z,8.00
2022-07-25T09:23:39.657Z,8.50
2022-07-25T09:26:13.751Z,8.33
2022-07-25T09:28:45.937Z,7.37
2022-07-25T09:31:14.690Z,7.60
2022-07-25T09:33:56.418Z,8.17
2022-07-25T09:36:24.081Z,6.07
2022-07-25T09:39:01.378Z,6.70
2022-07-25T09:41:39.459Z,6.80
2022-07-25T09:44:17.228Z,6.90
2022-07-25T09:46:44.691Z,6.77
2022-07-25T09:49:14.573Z,7.37
2022-07-25T09:51:44.716Z,7.50
2022-07-25T09:54:11.689Z,6.90
2022-07-25T09:56:38.388Z,7.70
2022-07-25T09:59:06.119Z,7.97
2022-07-25T10:01:39.663Z,10.20
2022-07-25T10:04:22.338Z,8.47
2022-07-25T10:07:04.207Z,7.70
2022-07-25T10:09:32.176Z,9.07
2022-07-25T10:12:10.196Z,8.10
2022-07-25T10:14:38.523Z,7.93
2022-07-25T10:17:06.429Z,8.30
2022-07-25T10:19:54.124Z,8.97
2022-07-25T10:22:46.315Z,8.47
2022-07-25T10:25:19.237Z,8.63
2022-07-25T10:27:52.990Z,10.40
2022-07-25T10:30:23.417Z,8.57
2022-07-25T10:32:58.533Z,8.93
2022-07-25T10:35:27.359Z,8.57
2022-07-25T10:37:56.473Z,8.70
2022-07-25T10:40:32.850Z,7.27
2022-07-25T10:43:23.109Z,7.57
2022-07-25T10:45:57.848Z,7.60
2022-07-25T10:48:32.740Z,8.27
2022-07-25T10:51:12.954Z,8.93
2022-07-25T10:53:47.296Z,7.67
2022-07-25T10:56:19.981Z,9.90
2022-07-25T10:58:51.218Z,8.20
2022-07-25T11:01:22.819Z,8.33
2022-07-25T11:03:50.668Z,7.03
2022-07-25T11:06:29.885Z,7.67
2022-07-25T11:08:57.906Z,7.60
2022-07-25T11:11:40.592Z,6.20
2022-07-25T11:14:19.617Z,8.90
2022-07-25T11:16:48.929Z,7.60
2022-07-25T11:19:23.814Z,9.23
2022-07-25T11:21:55.819Z,7.30
2022-07-25T11:24:34.698Z,8.30
2022-07-25T11:27:01.543Z,9.27
2022-07-25T11:29:28.239Z,8.27
2022-07-25T11:31:57.636Z,8.03
2022-07-25T11:34:27.511Z,8.40
2022-07-25T11:36:57.237Z,7.50
2022-07-25T11:39:26.635Z,8.53
2022-07-25T11:42:21.943Z,8.27
2022-07-25T11:44:52.929Z,8.20
2022-07-25T11:47:29.049Z,9.53
2022-07-25T11:50:02.546Z,8.13
2022-07-25T11:52:34.436Z,7.70
2022-07-25T11:55:02.991Z,8.00
2022-07-25T11:57:34.654Z,7.87
2022-07-25T12:00:04.735Z,8.43
2022-07-25T12:02:38.049Z,7.77
2022-07-25T12:05:08.089Z,8.30
2022-07-25T12:07:45.764Z,8.20
2022-07-25T12:10:31.589Z,8.77
2022-07-25T12:12:58.826Z,9.07
2022-07-25T12:15:28.952Z,8.77
2022-07-25T12:17:57.787Z,8.83
2022-07-25T12:20:32.760Z,8.47
2022-07-25T12:23:03.328Z,8.83
2022-07-25T12:25:34.046Z,8.97
2022-07-25T12:28:01.065Z,8.57
2022-07-25T12:30:29.423Z,8.13
2022-07-25T12:32:57.658Z,9.80
2022-07-25T12:35:25.610Z,9.43
2022-07-25T12:37:52.765Z,8.00
2022-07-25T12:40:20.540Z,8.80
2022-07-25T12:42:49.285Z,8.83
2022-07-25T12:45:17.293Z,9.07
2022-07-25T12:47:45.482Z,9.13
2022-07-25T12:50:13.623Z,8.07
2022-07-25T12:52:41.390Z,8.53
2022-07-25T12:55:10.579Z,9.10
2022-07-25T12:57:37.714Z,9.57
2022-07-25T13:00:11.159Z,6.93
2022-07-25T13:02:38.083Z,7.67
2022-07-25T13:05:06.147Z,7.50
2022-07-25T13:07:34.142Z,7.63
2022-07-25T13:10:02.091Z,7.80
2022-07-25T13:12:28.835Z,7.60
2022-07-25T13:14:55.566Z,8.67
2022-07-25T13:17:26.717Z,8.50
2022-07-25T13:19:55.521Z,7.50
2022-07-25T13:22:22.208Z,8.23
2022-07-25T13:24:48.907Z,8.50
2022-07-25T13:27:18.400Z,7.90
2022-07-25T13:29:45.390Z,8.10
2022-07-25T13:32:12.188Z,8.80
2022-07-25T13:34:39.496Z,8.77
2022-07-25T13:37:06.164Z,9.03
2022-07-25T13:39:33.664Z,10.00
2022-07-25T13:42:00.417Z,9.03
2022-07-25T13:44:27.140Z,8.90
2022-07-25T13:46:53.985Z,9.23
2022-07-25T13:49:20.762Z,10.90
2022-07-25T13:51:47.710Z,9.00
2022-07-25T13:54:14.550Z,9.43
2022-07-25T13:56:42.567Z,9.20
2022-07-25T13:59:10.089Z,8.43
2022-07-25T14:01:37.463Z,9.80
2022-07-25T14:04:04.189Z,8.63
2022-07-25T14:06:30.847Z,8.93
2022-07-25T14:08:58.438Z,8.93
2022-07-25T14:11:30.221Z,9.10
2022-07-25T14:13:58.224Z,8.43
2022-07-25T14:16:25.073Z,8.83
2022-07-25T14:18:52.042Z,9.67
2022-07-25T14:21:18.811Z,8.77
2022-07-25T14:23:45.508Z,7.73
2022-07-25T14:26:12.986Z,8.17
2022-07-25T14:28:39.744Z,7.30
2022-07-25T14:31:06.567Z,6.40
2022-07-25T14:33:37.853Z,8.53
2022-07-25T14:36:04.807Z,7.90
2022-07-25T14:38:32.021Z,8.20
2022-07-25T14:40:58.722Z,8.30
2022-07-25T14:43:25.498Z,8.03
2022-07-25T14:45:52.286Z,7.37
2022-07-25T14:48:19.054Z,7.50
2022-07-25T14:50:45.746Z,8.37
2022-07-25T14:53:13.516Z,7.77
2022-07-25T14:55:40.364Z,8.10
2022-07-25T14:58:07.519Z,8.47
2022-07-25T15:00:34.427Z,9.07
2022-07-25T15:03:01.684Z,9.67
2022-07-25T15:05:28.414Z,8.20
2022-07-25T15:07:55.198Z,7.43
2022-07-25T15:10:22.341Z,8.90
2022-07-25T15:12:54.283Z,7.60
2022-07-25T15:15:29.054Z,9.00
2022-07-25T15:17:55.943Z,8.73
2022-07-25T15:20:22.739Z,9.83
2022-07-25T15:22:49.585Z,8.13
2022-07-25T15:25:45.361Z,8.20
2022-07-25T15:28:03.394Z,7.60
2022-07-25T15:30:30.280Z,8.73
2022-07-25T15:32:57.023Z,7.90
2022-07-25T15:35:23.719Z,7.17
2022-07-25T15:37:50.335Z,7.07
2022-07-25T15:40:17.157Z,7.10
2022-07-25T15:42:44.187Z,6.93
2022-07-25T15:45:33.052Z,7.80
2022-07-25T15:47:59.891Z,8.00
2022-07-25T15:50:26.715Z,7.77
2022-07-25T15:52:53.433Z,5.07
2022-07-25T15:55:20.064Z,4.97
2022-07-25T15:57:46.733Z,5.43
2022-07-25T16:00:13.880Z,5.23
2022-07-25T16:02:40.570Z,4.70
2022-07-25T16:05:07.519Z,5.10
2022-07-25T16:07:34.275Z,6.60
2022-07-25T16:10:00.901Z,6.00
2022-07-25T16:12:28.722Z,6.37
2022-07-25T16:14:56.054Z,6.13
2022-07-25T16:17:23.820Z,4.43
2022-07-25T16:19:50.437Z,6.33
2022-07-25T16:22:17.133Z,4.43
2022-07-25T16:24:44.369Z,4.93
2022-07-25T16:27:11.280Z,5.50
2022-07-25T16:29:38.630Z,4.83
2022-07-25T16:32:05.957Z,5.23
2022-07-25T16:34:33.086Z,5.40
2022-07-25T16:37:01.350Z,7.43
2022-07-25T16:39:28.762Z,5.20
2022-07-25T16:41:55.764Z,4.87
2022-07-25T16:44:25.727Z,5.80
2022-07-25T16:46:53.007Z,6.07
2022-07-25T16:49:19.875Z,6.20
2022-07-25T16:51:46.708Z,6.00
2022-07-25T16:54:13.870Z,6.87
2022-07-25T16:56:40.880Z,6.93
2022-07-25T16:59:08.963Z,6.77
2022-07-25T17:01:36.017Z,6.53
2022-07-25T17:04:03.723Z,6.93
2022-07-25T17:06:30.809Z,6.40
2022-07-25T17:08:58.637Z,23.73
2022-07-25T17:11:25.532Z,7.27
2022-07-25T17:13:52.314Z,6.00
2022-07-25T17:16:19.175Z,6.40
2022-07-25T17:18:45.978Z,7.80
2022-07-25T17:21:15.213Z,7.17
2022-07-25T17:23:41.904Z,6.93
2022-07-25T17:26:08.616Z,6.40
2022-07-25T17:28:35.521Z,7.30
2022-07-25T17:31:02.424Z,7.00
2022-07-25T17:33:29.033Z,6.87
2022-07-25T17:35:55.670Z,8.70
2022-07-25T17:38:26.296Z,7.97
2022-07-25T17:40:54.499Z,8.97
2022-07-25T17:43:21.339Z,8.07
2022-07-25T17:45:48.022Z,6.43
2022-07-25T17:48:15.484Z,7.60
2022-07-25T17:50:42.292Z,7.67
2022-07-25T17:53:09.017Z,8.30
2022-07-25T17:55:38.957Z,7.10
2022-07-25T17:58:06.137Z,7.60
2022-07-25T18:00:32.807Z,8.73
2022-07-25T18:02:59.715Z,7.23
2022-07-25T18:05:26.846Z,7.50
2022-07-25T18:07:54.161Z,8.03
2022-07-25T18:10:22.021Z,7.80
2022-07-25T18:12:49.487Z,7.73
2022-07-25T18:15:16.986Z,7.27
2022-07-25T18:17:45.058Z,8.13
2022-07-25T18:20:13.072Z,9.33
2022-07-25T18:22:41.173Z,8.53
2022-07-25T18:25:11.011Z,7.60
2022-07-25T18:27:40.950Z,7.37
2022-07-25T18:30:11.659Z,8.37
2022-07-25T18:32:39.263Z,8.47
2022-07-25T18:38:06.072Z,7.20
2022-07-25T18:40:32.735Z,8.20
2022-07-25T18:42:59.395Z,7.10
2022-07-25T18:45:26.271Z,7.83
2022-07-25T18:47:53.554Z,8.10
2022-07-25T18:50:20.395Z,7.20
2022-07-25T18:52:47.145Z,7.70
2022-07-25T18:55:13.928Z,7.97
2022-07-25T18:57:40.652Z,7.77
2022-07-25T19:00:08.347Z,7.20
2022-07-25T19:02:35.163Z,8.43
2022-07-25T19:05:02.345Z,8.93
2022-07-25T19:07:31.146Z,7.17
2022-07-25T19:09:57.966Z,7.40
2022-07-25T19:12:26.549Z,8.37
2022-07-25T19:14:54.364Z,7.73
2022-07-25T19:17:21.243Z,7.20
2022-07-25T19:19:48.025Z,8.70
2022-07-25T19:22:14.705Z,7.23
2022-07-25T19:24:41.739Z,7.50
2022-07-25T19:27:09.337Z,8.40
2022-07-25T19:29:37.365Z,8.93
2022-07-25T19:32:04.639Z,8.73
2022-07-25T19:34:31.353Z,8.57
2022-07-25T19:37:00.969Z,11.73
2022-07-25T19:39:27.927Z,8.93
2022-07-25T19:41:54.703Z,9.53
2022-07-25T19:44:24.382Z,9.70
2022-07-25T19:46:51.170Z,9.37
2022-07-25T19:49:17.933Z,9.43
2022-07-25T19:51:44.813Z,9.13
2022-07-25T19:54:12.248Z,7.97
2022-07-25T19:56:39.018Z,8.23
2022-07-25T19:59:05.829Z,11.80
2022-07-25T20:01:35.853Z,8.90
2022-07-25T20:04:05.411Z,8.83
2022-07-25T20:06:32.615Z,8.73
2022-07-25T20:08:59.314Z,8.50
2022-07-25T20:11:26.322Z,9.30
2022-07-25T20:13:54.015Z,9.60
2022-07-25T20:16:20.742Z,9.70
2022-07-25T20:18:47.550Z,9.47
2022-07-25T20:21:14.591Z,7.93
2022-07-25T20:23:41.602Z,8.73
2022-07-25T20:26:08.798Z,10.00
2022-07-25T20:28:35.646Z,8.67
2022-07-25T20:31:02.927Z,8.80
2022-07-25T20:33:30.145Z,8.53
2022-07-25T20:35:57.654Z,7.20
2022-07-25T20:38:28.281Z,6.37
2022-07-25T20:40:56.089Z,6.30
2022-07-25T20:43:22.866Z,10.60
2022-07-25T20:45:50.029Z,8.43
2022-07-25T20:48:17.239Z,6.17
2022-07-25T20:50:44.305Z,6.90
2022-07-25T20:53:11.692Z,6.33
2022-07-25T20:55:38.510Z,8.57
2022-07-25T20:58:05.359Z,7.57
2022-07-25T21:00:32.367Z,7.17
2022-07-25T21:03:00.095Z,7.20
2022-07-25T21:05:27.376Z,7.20
2022-07-25T21:07:54.447Z,8.60
2022-07-25T21:10:21.569Z,6.83
2022-07-25T21:12:48.288Z,6.93
2022-07-25T21:15:15.085Z,6.10
2022-07-25T21:17:41.876Z,6.43
2022-07-25T21:20:13.842Z,7.03
2022-07-25T21:22:41.249Z,7.20
2022-07-25T21:25:08.916Z,7.07
2022-07-25T21:27:36.378Z,7.20
2022-07-25T21:30:07.939Z,7.40
2022-07-25T21:32:34.652Z,8.07
2022-07-25T21:35:01.459Z,7.30
2022-07-25T21:37:28.121Z,14.00
2022-07-25T21:39:54.769Z,10.00
2022-07-25T21:42:21.462Z,6.90
2022-07-25T21:44:48.133Z,7.73
2022-07-25T21:47:14.935Z,7.57
2022-07-25T21:50:00.263Z,6.57
2022-07-25T21:52:34.434Z,8.90
2022-07-25T21:55:03.537Z,7.70
2022-07-25T21:57:31.229Z,8.13
2022-07-25T21:59:57.962Z,7.73
2022-07-25T22:02:25.064Z,7.67
2022-07-25T22:04:51.809Z,7.40
2022-07-25T22:07:18.944Z,8.83
2022-07-25T22:09:45.657Z,8.33
2022-07-25T22:12:12.353Z,8.53
2022-07-25T22:14:39.012Z,7.40
2022-07-25T22:17:05.933Z,8.33
2022-07-25T22:19:33.429Z,7.63
2022-07-25T22:22:00.475Z,7.30
2022-07-25T22:24:27.170Z,7.73
2022-07-25T22:26:53.877Z,8.93
2022-07-25T22:29:20.504Z,8.33
2022-07-25T22:31:47.309Z,9.13
2022-07-25T22:34:13.977Z,10.30
2022-07-25T22:36:40.695Z,8.93
2022-07-25T22:39:07.679Z,11.60
2022-07-25T22:41:34.838Z,8.57
2022-07-25T22:44:01.748Z,8.60
2022-07-25T22:46:29.307Z,10.77
2022-07-25T22:48:56.983Z,9.57
2022-07-25T22:51:23.902Z,10.03
2022-07-25T22:53:50.858Z,9.93
2022-07-25T22:56:17.578Z,9.90
2022-07-25T22:58:45.699Z,13.53
2022-07-25T23:01:16.755Z,11.13
2022-07-25T23:03:43.594Z,10.17
2022-07-25T23:06:10.666Z,10.70
2022-07-25T23:08:37.484Z,10.07
2022-07-25T23:11:06.001Z,8.97
2022-07-25T23:13:33.979Z,11.37
2022-07-25T23:16:00.848Z,9.30
2022-07-25T23:18:30.012Z,10.13
2022-07-25T23:20:56.736Z,9.90
2022-07-25T23:23:23.423Z,11.67
2022-07-25T23:25:50.125Z,10.23
2022-07-25T23:28:16.786Z,8.97
2022-07-25T23:30:43.488Z,10.37
2022-07-25T23:33:10.485Z,9.97
2022-07-25T23:35:37.164Z,9.60
2022-07-25T23:38:03.939Z,10.53
2022-07-25T23:40:30.685Z,10.13
2022-07-25T23:42:57.429Z,9.73
2022-07-25T23:45:28.128Z,9.43
2022-07-25T23:47:56.514Z,8.87
2022-07-25T23:50:24.297Z,9.90
2022-07-25T23:52:51.666Z,9.60
2022-07-25T23:55:18.487Z,9.33
2022-07-25T23:57:45.305Z,9.17
